Airport View

Enter AWOS ICAO identifier for current METAR.

ex. KFNL

KAIT 140215Z AUTO 00000KT 7SM -SN BKN028 OVC036 M10/M12 A2980 RMK AO2

14 Dec 2019 02:38

Frequency: 118.675

Phone: 218-927-2101

Other Area AWOS: KHZX - KBRD - KPWC - KXVG

TAF KBRD 132338Z 1400/1424 VRB04KT 5SM -SN SCT018 OVC030 TEMPO 1400/1402 2SM -SN BKN018 OVC030 FM140400 31007KT 6SM -SN BR BKN020 OVC035 FM141300 32011G16KT P6SM BKN035 FM141500 33011G17KT P6SM SCT030